sensor_id;sensor_type;location;lat;lon;timestamp;pressure;altitude;pressure_sealevel;temperature;humidity
23223;BME280;11780;13.904;100.620;2022-11-20T00:00:20;100892.00;;;29.60;71.92
23223;BME280;11780;13.904;100.620;2022-11-20T00:02:51;100884.53;;;29.60;71.61
23223;BME280;11780;13.904;100.620;2022-11-20T00:05:21;100885.97;;;29.58;71.61
23223;BME280;11780;13.904;100.620;2022-11-20T00:07:51;100887.28;;;29.60;71.77
23223;BME280;11780;13.904;100.620;2022-11-20T00:10:21;100891.16;;;29.59;71.55
23223;BME280;11780;13.904;100.620;2022-11-20T00:12:52;100897.50;;;29.60;71.92
23223;BME280;11780;13.904;100.620;2022-11-20T00:15:22;100911.28;;;29.60;71.75
23223;BME280;11780;13.904;100.620;2022-11-20T00:17:52;100914.06;;;29.60;71.98
23223;BME280;11780;13.904;100.620;2022-11-20T00:20:22;100925.78;;;29.66;71.55
23223;BME280;11780;13.904;100.620;2022-11-20T00:22:52;100939.88;;;29.64;72.02
23223;BME280;11780;13.904;100.620;2022-11-20T00:25:22;100937.13;;;29.64;71.58
23223;BME280;11780;13.904;100.620;2022-11-20T00:27:52;100941.00;;;29.63;71.82
23223;BME280;11780;13.904;100.620;2022-11-20T00:30:22;100945.38;;;29.64;71.85
23223;BME280;11780;13.904;100.620;2022-11-20T00:32:53;100950.59;;;29.66;71.84
23223;BME280;11780;13.904;100.620;2022-11-20T00:35:23;100956.94;;;29.66;71.94
23223;BME280;11780;13.904;100.620;2022-11-20T00:37:53;100958.53;;;29.67;71.59
23223;BME280;11780;13.904;100.620;2022-11-20T00:40:24;100964.88;;;29.68;71.75
23223;BME280;11780;13.904;100.620;2022-11-20T00:42:54;100972.31;;;29.67;71.99
23223;BME280;11780;13.904;100.620;2022-11-20T00:45:24;100985.28;;;29.67;71.95
23223;BME280;11780;13.904;100.620;2022-11-20T00:47:54;100987.72;;;29.68;71.98
23223;BME280;11780;13.904;100.620;2022-11-20T00:50:24;100989.19;;;29.66;71.76
23223;BME280;11780;13.904;100.620;2022-11-20T00:52:55;100988.06;;;29.67;71.97
23223;BME280;11780;13.904;100.620;2022-11-20T00:55:25;101000.38;;;29.69;71.71
23223;BME280;11780;13.904;100.620;2022-11-20T00:57:55;101015.28;;;29.68;71.55
23223;BME280;11780;13.904;100.620;2022-11-20T01:00:30;101010.28;;;29.70;71.28
23223;BME280;11780;13.904;100.620;2022-11-20T01:03:00;101012.53;;;29.68;71.38
23223;BME280;11780;13.904;100.620;2022-11-20T01:05:34;101009.78;;;29.68;71.14
23223;BME280;11780;13.904;100.620;2022-11-20T01:08:05;101015.28;;;29.68;71.42
23223;BME280;11780;13.904;100.620;2022-11-20T01:10:35;101017.25;;;29.68;71.22
23223;BME280;11780;13.904;100.620;2022-11-20T01:13:06;101016.41;;;29.67;71.18
23223;BME280;11780;13.904;100.620;2022-11-20T01:15:54;101016.13;;;29.69;71.20
23223;BME280;11780;13.904;100.620;2022-11-20T01:18:24;101020.81;;;29.68;71.24
23223;BME280;11780;13.904;100.620;2022-11-20T01:20:54;101029.59;;;29.70;71.06
23223;BME280;11780;13.904;100.620;2022-11-20T01:23:25;101028.28;;;29.68;70.83
23223;BME280;11780;13.904;100.620;2022-11-20T01:25:55;101031.84;;;29.68;70.71
23223;BME280;11780;13.904;100.620;2022-11-20T01:28:25;101041.44;;;29.71;70.89
23223;BME280;11780;13.904;100.620;2022-11-20T01:30:56;101034.59;;;29.68;70.85
23223;BME280;11780;13.904;100.620;2022-11-20T01:33:27;101028.28;;;29.68;71.30
23223;BME280;11780;13.904;100.620;2022-11-20T01:36:04;101035.72;;;29.67;71.04
23223;BME280;11780;13.904;100.620;2022-11-20T01:38:35;101036.56;;;29.68;70.88
23223;BME280;11780;13.904;100.620;2022-11-20T01:41:07;101034.31;;;29.70;71.11
23223;BME280;11780;13.904;100.620;2022-11-20T01:43:37;101039.31;;;29.68;70.71
23223;BME280;11780;13.904;100.620;2022-11-20T01:51:29;101033.28;;;29.66;70.98
23223;BME280;11780;13.904;100.620;2022-11-20T01:54:07;101033.78;;;29.68;71.09
23223;BME280;11780;13.904;100.620;2022-11-20T01:56:42;101032.66;;;29.69;71.10
23223;BME280;11780;13.904;100.620;2022-11-20T01:59:16;101028.59;;;29.66;70.99
23223;BME280;11780;13.904;100.620;2022-11-20T02:01:49;101024.69;;;29.67;70.90
23223;BME280;11780;13.904;100.620;2022-11-20T02:04:20;101034.13;;;29.66;71.05
23223;BME280;11780;13.904;100.620;2022-11-20T02:07:00;101044.50;;;29.69;71.02
23223;BME280;11780;13.904;100.620;2022-11-20T02:09:31;101046.13;;;29.70;70.77
23223;BME280;11780;13.904;100.620;2022-11-20T02:12:01;101050.00;;;29.69;71.15
23223;BME280;11780;13.904;100.620;2022-11-20T02:14:32;101057.16;;;29.70;70.83
23223;BME280;11780;13.904;100.620;2022-11-20T02:17:02;101056.38;;;29.70;70.99
23223;BME280;11780;13.904;100.620;2022-11-20T02:19:33;101062.69;;;29.70;70.76
23223;BME280;11780;13.904;100.620;2022-11-20T02:22:11;101061.03;;;29.69;70.98
23223;BME280;11780;13.904;100.620;2022-11-20T02:24:45;101058.81;;;29.71;70.99
23223;BME280;11780;13.904;100.620;2022-11-20T02:27:18;101060.75;;;29.71;70.95
23223;BME280;11780;13.904;100.620;2022-11-20T02:29:58;101055.25;;;29.71;71.15
23223;BME280;11780;13.904;100.620;2022-11-20T02:32:35;101059.91;;;29.70;70.69
23223;BME280;11780;13.904;100.620;2022-11-20T02:37:50;101053.28;;;29.71;70.95
23223;BME280;11780;13.904;100.620;2022-11-20T02:40:23;101064.81;;;29.73;70.61
23223;BME280;11780;13.904;100.620;2022-11-20T02:42:55;101051.88;;;29.74;70.54
23223;BME280;11780;13.904;100.620;2022-11-20T02:45:25;101058.50;;;29.73;70.57
23223;BME280;11780;13.904;100.620;2022-11-20T02:47:55;101062.06;;;29.73;70.59
23223;BME280;11780;13.904;100.620;2022-11-20T02:50:26;101070.84;;;29.75;70.39
23223;BME280;11780;13.904;100.620;2022-11-20T02:52:56;101060.94;;;29.74;70.47
23223;BME280;11780;13.904;100.620;2022-11-20T02:55:26;101059.81;;;29.75;70.72
23223;BME280;11780;13.904;100.620;2022-11-20T02:57:57;101061.47;;;29.76;70.65
23223;BME280;11780;13.904;100.620;2022-11-20T03:00:27;101059.00;;;29.75;70.63
23223;BME280;11780;13.904;100.620;2022-11-20T03:02:57;101054.31;;;29.75;70.34
23223;BME280;11780;13.904;100.620;2022-11-20T03:05:28;101055.13;;;29.76;70.57
23223;BME280;11780;13.904;100.620;2022-11-20T03:07:58;101065.34;;;29.75;70.31
23223;BME280;11780;13.904;100.620;2022-11-20T03:10:28;101067.78;;;29.77;70.66
23223;BME280;11780;13.904;100.620;2022-11-20T03:12:59;101058.69;;;29.76;70.57
23223;BME280;11780;13.904;100.620;2022-11-20T03:15:30;101063.38;;;29.76;70.16
23223;BME280;11780;13.904;100.620;2022-11-20T03:18:00;101073.59;;;29.75;70.27
23223;BME280;11780;13.904;100.620;2022-11-20T03:20:32;101066.66;;;29.78;70.46
23223;BME280;11780;13.904;100.620;2022-11-20T03:23:03;101068.59;;;29.77;70.28
23223;BME280;11780;13.904;100.620;2022-11-20T03:25:33;101069.72;;;29.76;70.16
23223;BME280;11780;13.904;100.620;2022-11-20T03:28:05;101064.72;;;29.78;70.30
23223;BME280;11780;13.904;100.620;2022-11-20T03:30:35;101063.09;;;29.77;70.01
23223;BME280;11780;13.904;100.620;2022-11-20T03:33:06;101061.47;;;29.76;70.24
23223;BME280;11780;13.904;100.620;2022-11-20T03:35:36;101055.94;;;29.76;69.68
23223;BME280;11780;13.904;100.620;2022-11-20T03:38:06;101047.34;;;29.78;70.23
23223;BME280;11780;13.904;100.620;2022-11-20T03:40:36;101047.34;;;29.78;69.98
23223;BME280;11780;13.904;100.620;2022-11-20T03:43:06;101050.63;;;29.80;70.11
23223;BME280;11780;13.904;100.620;2022-11-20T03:45:37;101047.88;;;29.80;70.10
23223;BME280;11780;13.904;100.620;2022-11-20T03:48:07;101038.78;;;29.80;70.01
23223;BME280;11780;13.904;100.620;2022-11-20T03:50:37;101045.09;;;29.80;69.91
23223;BME280;11780;13.904;100.620;2022-11-20T03:53:08;101042.34;;;29.80;69.76
23223;BME280;11780;13.904;100.620;2022-11-20T03:55:38;101036.03;;;29.80;69.73
23223;BME280;11780;13.904;100.620;2022-11-20T03:58:09;101032.94;;;29.81;69.84
23223;BME280;11780;13.904;100.620;2022-11-20T04:00:39;101017.53;;;29.80;69.79
23223;BME280;11780;13.904;100.620;2022-11-20T04:03:09;101012.34;;;29.78;69.55
23223;BME280;11780;13.904;100.620;2022-11-20T04:05:40;101000.19;;;29.80;69.78
23223;BME280;11780;13.904;100.620;2022-11-20T04:08:10;101006.50;;;29.80;69.32
23223;BME280;11780;13.904;100.620;2022-11-20T04:10:41;100999.88;;;29.81;69.39
23223;BME280;11780;13.904;100.620;2022-11-20T04:13:11;100992.41;;;29.82;69.18
23223;BME280;11780;13.904;100.620;2022-11-20T04:15:41;100988.50;;;29.83;69.33
23223;BME280;11780;13.904;100.620;2022-11-20T04:18:12;100989.16;;;29.80;68.82
23223;BME280;11780;13.904;100.620;2022-11-20T04:20:41;100978.63;;;29.82;69.05
23223;BME280;11780;13.904;100.620;2022-11-20T04:23:11;100970.38;;;29.82;68.76
23223;BME280;11780;13.904;100.620;2022-11-20T04:25:42;100973.13;;;29.82;68.86
23223;BME280;11780;13.904;100.620;2022-11-20T04:28:12;100971.97;;;29.83;68.76
23223;BME280;11780;13.904;100.620;2022-11-20T04:30:42;100962.91;;;29.82;68.75
23223;BME280;11780;13.904;100.620;2022-11-20T04:33:13;100958.19;;;29.83;68.94
23223;BME280;11780;13.904;100.620;2022-11-20T04:35:44;100962.56;;;29.84;68.86
23223;BME280;11780;13.904;100.620;2022-11-20T04:38:17;100953.81;;;29.82;69.02
23223;BME280;11780;13.904;100.620;2022-11-20T04:40:47;100948.31;;;29.82;68.13
23223;BME280;11780;13.904;100.620;2022-11-20T04:43:18;100950.75;;;29.83;68.63
23223;BME280;11780;13.904;100.620;2022-11-20T04:45:54;100945.22;;;29.83;68.48
23223;BME280;11780;13.904;100.620;2022-11-20T04:48:26;100945.53;;;29.82;68.59
23223;BME280;11780;13.904;100.620;2022-11-20T04:50:57;100942.78;;;29.82;68.37
23223;BME280;11780;13.904;100.620;2022-11-20T04:53:28;100928.69;;;29.83;68.56
23223;BME280;11780;13.904;100.620;2022-11-20T04:56:03;100930.31;;;29.84;68.33
23223;BME280;11780;13.904;100.620;2022-11-20T04:58:35;100929.19;;;29.85;68.75
23223;BME280;11780;13.904;100.620;2022-11-20T05:01:11;100919.28;;;29.84;68.47
23223;BME280;11780;13.904;100.620;2022-11-20T05:03:43;100913.75;;;29.84;68.39
23223;BME280;11780;13.904;100.620;2022-11-20T05:06:17;100917.03;;;29.86;68.39
23223;BME280;11780;13.904;100.620;2022-11-20T05:08:49;100904.38;;;29.85;68.17
23223;BME280;11780;13.904;100.620;2022-11-20T05:11:20;100905.16;;;29.86;67.79
23223;BME280;11780;13.904;100.620;2022-11-20T05:13:51;100900.16;;;29.88;67.57
23223;BME280;11780;13.904;100.620;2022-11-20T05:16:23;100894.13;;;29.86;67.98
23223;BME280;11780;13.904;100.620;2022-11-20T05:18:54;100890.25;;;29.87;67.45
23223;BME280;11780;13.904;100.620;2022-11-20T05:21:25;100883.63;;;29.88;67.40
23223;BME280;11780;13.904;100.620;2022-11-20T05:23:55;100880.06;;;29.87;66.91
23223;BME280;11780;13.904;100.620;2022-11-20T05:26:25;100866.28;;;29.87;67.28
23223;BME280;11780;13.904;100.620;2022-11-20T05:28:56;100877.81;;;29.89;67.46
23223;BME280;11780;13.904;100.620;2022-11-20T05:31:26;100867.56;;;29.90;67.69
23223;BME280;11780;13.904;100.620;2022-11-20T05:33:57;100875.53;;;29.91;67.85
23223;BME280;11780;13.904;100.620;2022-11-20T05:36:27;100869.19;;;29.91;67.64
23223;BME280;11780;13.904;100.620;2022-11-20T05:38:57;100871.63;;;29.92;67.76
23223;BME280;11780;13.904;100.620;2022-11-20T05:41:28;100870.84;;;29.92;67.54
23223;BME280;11780;13.904;100.620;2022-11-20T05:43:59;100866.94;;;29.93;67.34
23223;BME280;11780;13.904;100.620;2022-11-20T05:46:29;100854.28;;;29.92;67.27
23223;BME280;11780;13.904;100.620;2022-11-20T05:49:00;100851.53;;;29.92;66.92
23223;BME280;11780;13.904;100.620;2022-11-20T05:51:30;100847.94;;;29.91;67.13
23223;BME280;11780;13.904;100.620;2022-11-20T05:54:00;100847.66;;;29.93;66.95
23223;BME280;11780;13.904;100.620;2022-11-20T05:56:30;100843.25;;;29.92;67.18
23223;BME280;11780;13.904;100.620;2022-11-20T05:59:01;100843.25;;;29.92;67.42
23223;BME280;11780;13.904;100.620;2022-11-20T06:01:31;100833.03;;;29.92;66.94
23223;BME280;11780;13.904;100.620;2022-11-20T06:04:02;100831.09;;;29.93;66.68
23223;BME280;11780;13.904;100.620;2022-11-20T06:06:32;100818.94;;;29.94;67.06
23223;BME280;11780;13.904;100.620;2022-11-20T06:09:03;100826.13;;;29.95;66.53
23223;BME280;11780;13.904;100.620;2022-11-20T06:11:33;100816.19;;;29.94;66.61
23223;BME280;11780;13.904;100.620;2022-11-20T06:14:03;100816.19;;;29.94;66.81
23223;BME280;11780;13.904;100.620;2022-11-20T06:16:33;100808.72;;;29.95;66.50
23223;BME280;11780;13.904;100.620;2022-11-20T06:19:03;100813.44;;;29.94;66.47
23223;BME280;11780;13.904;100.620;2022-11-20T06:21:33;100811.19;;;29.96;67.06
23223;BME280;11780;13.904;100.620;2022-11-20T06:24:04;100807.63;;;29.96;66.61
23223;BME280;11780;13.904;100.620;2022-11-20T06:26:34;100798.53;;;29.95;66.74
23223;BME280;11780;13.904;100.620;2022-11-20T06:29:04;100796.28;;;29.97;66.95
23223;BME280;11780;13.904;100.620;2022-11-20T06:31:34;100777.78;;;29.98;67.44
23223;BME280;11780;13.904;100.620;2022-11-20T06:34:08;100772.59;;;29.96;66.91
23223;BME280;11780;13.904;100.620;2022-11-20T06:36:38;100772.75;;;30.00;67.29
23223;BME280;11780;13.904;100.620;2022-11-20T06:39:08;100760.09;;;29.99;67.07
23223;BME280;11780;13.904;100.620;2022-11-20T06:41:39;100758.13;;;29.99;67.45
23223;BME280;11780;13.904;100.620;2022-11-20T06:44:09;100749.88;;;29.99;67.73
23223;BME280;11780;13.904;100.620;2022-11-20T06:46:40;100749.88;;;29.99;67.34
23223;BME280;11780;13.904;100.620;2022-11-20T06:49:11;100753.75;;;29.98;66.97
23223;BME280;11780;13.904;100.620;2022-11-20T06:51:41;100747.13;;;29.99;67.59
23223;BME280;11780;13.904;100.620;2022-11-20T06:54:11;100735.59;;;29.97;67.27
23223;BME280;11780;13.904;100.620;2022-11-20T06:56:41;100744.34;;;29.99;67.58
23223;BME280;11780;13.904;100.620;2022-11-20T06:59:12;100733.31;;;29.99;67.45
23223;BME280;11780;13.904;100.620;2022-11-20T07:01:42;100727.81;;;29.99;67.33
23223;BME280;11780;13.904;100.620;2022-11-20T07:04:12;100712.88;;;30.00;67.51
23223;BME280;11780;13.904;100.620;2022-11-20T07:06:43;100705.75;;;29.99;67.31
23223;BME280;11780;13.904;100.620;2022-11-20T07:09:13;100696.34;;;30.00;67.70
23223;BME280;11780;13.904;100.620;2022-11-20T07:11:43;100683.38;;;30.01;67.52
23223;BME280;11780;13.904;100.620;2022-11-20T07:14:14;100678.66;;;30.01;67.47
23223;BME280;11780;13.904;100.620;2022-11-20T07:16:44;100672.34;;;30.01;67.37
23223;BME280;11780;13.904;100.620;2022-11-20T07:19:14;100667.63;;;30.01;67.42
23223;BME280;11780;13.904;100.620;2022-11-20T07:21:44;100668.13;;;30.03;67.73
23223;BME280;11780;13.904;100.620;2022-11-20T07:24:15;100660.19;;;30.02;67.38
23223;BME280;11780;13.904;100.620;2022-11-20T07:26:48;100657.44;;;30.02;67.79
23223;BME280;11780;13.904;100.620;2022-11-20T07:29:20;100647.53;;;30.01;67.81
23223;BME280;11780;13.904;100.620;2022-11-20T07:31:50;100643.31;;;30.03;67.63
23223;BME280;11780;13.904;100.620;2022-11-20T07:34:20;100638.13;;;30.02;67.51
23223;BME280;11780;13.904;100.620;2022-11-20T07:36:51;100625.13;;;30.02;67.73
23223;BME280;11780;13.904;100.620;2022-11-20T07:39:21;100626.44;;;30.05;67.60
23223;BME280;11780;13.904;100.620;2022-11-20T07:41:51;100615.72;;;30.03;67.64
23223;BME280;11780;13.904;100.620;2022-11-20T07:44:21;100625.63;;;30.04;67.33
23223;BME280;11780;13.904;100.620;2022-11-20T07:46:52;100621.72;;;30.05;66.78
23223;BME280;11780;13.904;100.620;2022-11-20T07:49:22;100621.72;;;30.05;67.68
23223;BME280;11780;13.904;100.620;2022-11-20T07:51:53;100627.25;;;30.05;67.03
23223;BME280;11780;13.904;100.620;2022-11-20T07:54:30;100617.00;;;30.06;67.63
23223;BME280;11780;13.904;100.620;2022-11-20T07:57:01;100618.97;;;30.05;67.38
23223;BME280;11780;13.904;100.620;2022-11-20T07:59:31;100617.84;;;30.06;67.52
23223;BME280;11780;13.904;100.620;2022-11-20T08:02:01;100619.47;;;30.07;67.57
23223;BME280;11780;13.904;100.620;2022-11-20T08:04:31;100616.72;;;30.07;67.75
23223;BME280;11780;13.904;100.620;2022-11-20T08:07:02;100608.44;;;30.07;67.48
23223;BME280;11780;13.904;100.620;2022-11-20T08:09:33;100608.75;;;30.06;67.91
23223;BME280;11780;13.904;100.620;2022-11-20T08:12:03;100617.00;;;30.06;67.80
23223;BME280;11780;13.904;100.620;2022-11-20T08:14:51;100611.50;;;30.06;67.88
23223;BME280;11780;13.904;100.620;2022-11-20T08:17:22;100610.38;;;30.07;67.94
23223;BME280;11780;13.904;100.620;2022-11-20T08:19:52;100612.00;;;30.08;67.62
23223;BME280;11780;13.904;100.620;2022-11-20T08:22:22;100604.53;;;30.08;67.74
23223;BME280;11780;13.904;100.620;2022-11-20T08:24:53;100608.44;;;30.07;67.23
23223;BME280;11780;13.904;100.620;2022-11-20T08:27:23;100597.41;;;30.07;67.58
23223;BME280;11780;13.904;100.620;2022-11-20T08:29:53;100611.69;;;30.10;67.32
23223;BME280;11780;13.904;100.620;2022-11-20T08:32:24;100605.34;;;30.09;67.39
23223;BME280;11780;13.904;100.620;2022-11-20T08:34:54;100605.34;;;30.09;66.73
23223;BME280;11780;13.904;100.620;2022-11-20T08:37:24;100608.59;;;30.11;67.43
23223;BME280;11780;13.904;100.620;2022-11-20T08:39:55;100607.81;;;30.11;67.21
23223;BME280;11780;13.904;100.620;2022-11-20T08:42:26;100609.72;;;30.10;67.76
23223;BME280;11780;13.904;100.620;2022-11-20T08:44:56;100605.03;;;30.11;67.45
23223;BME280;11780;13.904;100.620;2022-11-20T08:47:27;100608.59;;;30.11;67.43
23223;BME280;11780;13.904;100.620;2022-11-20T08:49:57;100610.56;;;30.11;67.61
23223;BME280;11780;13.904;100.620;2022-11-20T08:52:27;100608.94;;;30.10;67.52
23223;BME280;11780;13.904;100.620;2022-11-20T08:55:01;100610.88;;;30.09;67.59
23223;BME280;11780;13.904;100.620;2022-11-20T08:57:35;100614.13;;;30.11;67.91
23223;BME280;11780;13.904;100.620;2022-11-20T09:00:07;100607.81;;;30.11;67.56
23223;BME280;11780;13.904;100.620;2022-11-20T09:02:40;100610.56;;;30.11;67.57
23223;BME280;11780;13.904;100.620;2022-11-20T09:05:11;100607.81;;;30.11;67.67
23223;BME280;11780;13.904;100.620;2022-11-20T09:07:41;100604.53;;;30.08;68.05
23223;BME280;11780;13.904;100.620;2022-11-20T09:10:12;100610.88;;;30.09;67.64
23223;BME280;11780;13.904;100.620;2022-11-20T09:12:52;100610.56;;;30.11;67.79
23223;BME280;11780;13.904;100.620;2022-11-20T09:15:24;100614.94;;;30.12;67.66
23223;BME280;11780;13.904;100.620;2022-11-20T09:17:56;100613.31;;;30.11;67.55
23223;BME280;11780;13.904;100.620;2022-11-20T09:20:28;100612.97;;;30.12;67.73
23223;BME280;11780;13.904;100.620;2022-11-20T09:22:59;100611.06;;;30.13;67.28
23223;BME280;11780;13.904;100.620;2022-11-20T09:25:29;100618.00;;;30.10;67.83
23223;BME280;11780;13.904;100.620;2022-11-20T09:27:59;100620.47;;;30.12;67.84
23223;BME280;11780;13.904;100.620;2022-11-20T09:30:30;100623.69;;;30.14;68.00
23223;BME280;11780;13.904;100.620;2022-11-20T09:33:00;100622.09;;;30.13;68.14
23223;BME280;11780;13.904;100.620;2022-11-20T09:35:31;100621.41;;;30.16;68.32
23223;BME280;11780;13.904;100.620;2022-11-20T09:38:07;100616.22;;;30.14;68.46
23223;BME280;11780;13.904;100.620;2022-11-20T09:40:43;100622.25;;;30.16;68.77
23223;BME280;11780;13.904;100.620;2022-11-20T09:43:47;100623.41;;;30.24;69.25
23223;BME280;11780;13.904;100.620;2022-11-20T09:46:31;100633.47;;;30.29;69.36
23223;BME280;11780;13.904;100.620;2022-11-20T09:49:17;100628.75;;;30.47;68.85
23223;BME280;11780;13.904;100.620;2022-11-20T09:52:09;100635.41;;;30.46;68.99
23223;BME280;11780;13.904;100.620;2022-11-20T09:54:49;100632.66;;;30.46;68.68
23223;BME280;11780;13.904;100.620;2022-11-20T09:57:23;100647.00;;;30.57;68.92
23223;BME280;11780;13.904;100.620;2022-11-20T10:00:04;100640.28;;;30.49;69.04
23223;BME280;11780;13.904;100.620;2022-11-20T10:02:49;100641.94;;;30.50;68.57
23223;BME280;11780;13.904;100.620;2022-11-20T10:05:35;100642.56;;;30.38;69.03
23223;BME280;11780;13.904;100.620;2022-11-20T10:08:19;100652.47;;;30.48;68.05
23223;BME280;11780;13.904;100.620;2022-11-20T10:22:16;100670.16;;;30.38;66.38
23223;BME280;11780;13.904;100.620;2022-11-20T10:24:56;100672.91;;;30.38;65.96
23223;BME280;11780;13.904;100.620;2022-11-20T10:31:01;100671.13;;;30.33;65.66
23223;BME280;11780;13.904;100.620;2022-11-20T10:33:36;100670.63;;;30.31;65.39
23223;BME280;11780;13.904;100.620;2022-11-20T10:36:34;100673.38;;;30.31;65.69
23223;BME280;11780;13.904;100.620;2022-11-20T10:43:33;100670.63;;;30.31;65.69
23223;BME280;11780;13.904;100.620;2022-11-20T10:46:10;100675.84;;;30.33;65.37
23223;BME280;11780;13.904;100.620;2022-11-20T10:48:44;100677.47;;;30.34;65.04
23223;BME280;11780;13.904;100.620;2022-11-20T10:56:52;100693.34;;;30.37;65.61
23223;BME280;11780;13.904;100.620;2022-11-20T10:59:27;100693.66;;;30.27;65.72
23223;BME280;11780;13.904;100.620;2022-11-20T11:02:18;100695.47;;;30.31;65.61
23223;BME280;11780;13.904;100.620;2022-11-20T11:04:53;100695.44;;;30.22;65.56
23223;BME280;11780;13.904;100.620;2022-11-20T11:07:36;100707.16;;;30.28;65.16
23223;BME280;11780;13.904;100.620;2022-11-20T11:10:24;100713.94;;;30.22;65.42
23223;BME280;11780;13.904;100.620;2022-11-20T11:12:56;100703.91;;;30.26;65.67
23223;BME280;11780;13.904;100.620;2022-11-20T11:15:35;100707.16;;;30.28;65.62
23223;BME280;11780;13.904;100.620;2022-11-20T11:18:10;100713.34;;;30.34;65.63
23223;BME280;11780;13.904;100.620;2022-11-20T11:20:50;100714.78;;;30.31;65.98
23223;BME280;11780;13.904;100.620;2022-11-20T11:23:31;100720.00;;;30.33;65.64
23223;BME280;11780;13.904;100.620;2022-11-20T11:26:04;100729.41;;;30.32;65.88
23223;BME280;11780;13.904;100.620;2022-11-20T11:28:35;100734.41;;;30.30;66.05
23223;BME280;11780;13.904;100.620;2022-11-20T11:31:05;100744.00;;;30.32;65.85
23223;BME280;11780;13.904;100.620;2022-11-20T11:33:36;100750.66;;;30.31;66.01
23223;BME280;11780;13.904;100.620;2022-11-20T11:36:18;100758.28;;;30.34;65.98
23223;BME280;11780;13.904;100.620;2022-11-20T11:38:52;100756.16;;;30.31;66.15
23223;BME280;11780;13.904;100.620;2022-11-20T11:41:28;100763.94;;;30.29;65.82
23223;BME280;11780;13.904;100.620;2022-11-20T11:44:33;100774.84;;;30.34;66.02
23223;BME280;11780;13.904;100.620;2022-11-20T11:47:29;100777.59;;;30.34;65.83
23223;BME280;11780;13.904;100.620;2022-11-20T11:53:03;100775.81;;;30.30;65.87
23223;BME280;11780;13.904;100.620;2022-11-20T12:01:30;100801.78;;;30.29;66.64
23223;BME280;11780;13.904;100.620;2022-11-20T12:07:15;100811.19;;;30.28;66.85
23223;BME280;11780;13.904;100.620;2022-11-20T12:10:23;100818.47;;;30.23;66.10
23223;BME280;11780;13.904;100.620;2022-11-20T12:13:04;100834.72;;;30.25;66.41
23223;BME280;11780;13.904;100.620;2022-11-20T12:15:41;100823.69;;;30.25;66.39
23223;BME280;11780;13.904;100.620;2022-11-20T12:18:21;100831.97;;;30.25;66.40
23223;BME280;11780;13.904;100.620;2022-11-20T12:26:44;100848.00;;;30.23;66.70
23223;BME280;11780;13.904;100.620;2022-11-20T12:29:24;100855.16;;;30.24;66.59
23223;BME280;11780;13.904;100.620;2022-11-20T12:34:52;100852.53;;;30.19;66.69
23223;BME280;11780;13.904;100.620;2022-11-20T12:37:57;100866.66;;;30.17;66.44
23223;BME280;11780;13.904;100.620;2022-11-20T13:01:16;100890.03;;;30.20;65.70
23223;BME280;11780;13.904;100.620;2022-11-20T13:07:17;100901.06;;;30.20;65.76
23223;BME280;11780;13.904;100.620;2022-11-20T13:09:50;100902.38;;;30.22;65.78
23223;BME280;11780;13.904;100.620;2022-11-20T13:18:01;100898.91;;;30.17;65.77
23223;BME280;11780;13.904;100.620;2022-11-20T13:20:33;100906.69;;;30.37;65.79
23223;BME280;11780;13.904;100.620;2022-11-20T13:23:05;100913.22;;;30.42;65.61
23223;BME280;11780;13.904;100.620;2022-11-20T13:25:39;100908.84;;;30.49;65.62
23223;BME280;11780;13.904;100.620;2022-11-20T13:30:52;100915.69;;;30.52;65.65
23223;BME280;11780;13.904;100.620;2022-11-20T13:33:27;100919.56;;;30.51;65.47
23223;BME280;11780;13.904;100.620;2022-11-20T13:36:26;100922.66;;;30.49;65.50
23223;BME280;11780;13.904;100.620;2022-11-20T13:38:57;100921.19;;;30.52;65.50
23223;BME280;11780;13.904;100.620;2022-11-20T13:41:30;100932.16;;;30.57;65.73
23223;BME280;11780;13.904;100.620;2022-11-20T13:46:46;100929.97;;;30.54;65.41
23223;BME280;11780;13.904;100.620;2022-11-20T13:49:18;100940.09;;;30.59;65.70
23223;BME280;11780;13.904;100.620;2022-11-20T13:57:59;100945.94;;;30.57;65.76
23223;BME280;11780;13.904;100.620;2022-11-20T14:00:32;100956.66;;;30.59;66.12
23223;BME280;11780;13.904;100.620;2022-11-20T14:05:39;100955.16;;;30.30;66.83
23223;BME280;11780;13.904;100.620;2022-11-20T14:08:17;100962.75;;;30.24;67.29
23223;BME280;11780;13.904;100.620;2022-11-20T14:11:01;100951.84;;;30.19;67.85
23223;BME280;11780;13.904;100.620;2022-11-20T14:13:32;100953.47;;;30.20;67.52
23223;BME280;11780;13.904;100.620;2022-11-20T14:16:02;100955.09;;;30.21;67.61
23223;BME280;11780;13.904;100.620;2022-11-20T14:18:33;100953.59;;;30.15;67.72
23223;BME280;11780;13.904;100.620;2022-11-20T14:21:03;100954.09;;;30.17;67.92
23223;BME280;11780;13.904;100.620;2022-11-20T14:23:35;100958.00;;;30.16;67.78
23223;BME280;11780;13.904;100.620;2022-11-20T14:26:05;100952.47;;;30.16;67.84
23223;BME280;11780;13.904;100.620;2022-11-20T14:28:35;100963.50;;;30.16;67.76
23223;BME280;11780;13.904;100.620;2022-11-20T14:31:18;100951.16;;;30.13;67.44
23223;BME280;11780;13.904;100.620;2022-11-20T14:33:53;100950.66;;;30.34;67.23
23223;BME280;11780;13.904;100.620;2022-11-20T14:36:24;100951.25;;;30.53;66.38